createdAt,value
2022-09-16T00:01:35.161Z,53.12
2022-09-16T00:06:37.025Z,53.28
2022-09-16T00:11:38.889Z,53.36
2022-09-16T00:16:40.749Z,53.43
2022-09-16T00:21:42.765Z,53.58
2022-09-16T00:26:44.636Z,53.42
2022-09-16T00:31:46.648Z,54.00
2022-09-16T00:36:48.513Z,53.83
2022-09-16T00:41:50.668Z,53.66
2022-09-16T00:46:54.094Z,53.84
2022-09-16T00:52:05.781Z,53.86
2022-09-16T00:57:11.008Z,54.17
2022-09-16T01:02:17.918Z,54.36
2022-09-16T01:07:44.508Z,54.33
2022-09-16T01:12:49.838Z,54.52
2022-09-16T01:18:06.759Z,54.42
2022-09-16T01:23:56.511Z,54.51
2022-09-16T01:29:10.336Z,54.48
2022-09-16T01:34:36.839Z,54.26
2022-09-16T01:39:44.651Z,54.64
2022-09-16T01:45:03.191Z,54.63
2022-09-16T01:50:30.449Z,54.47
2022-09-16T01:55:46.889Z,54.66
2022-09-16T02:00:52.100Z,54.43
2022-09-16T02:05:58.631Z,54.46
2022-09-16T02:11:04.949Z,54.67
2022-09-16T02:16:39.761Z,54.41
2022-09-16T02:21:45.815Z,54.42
2022-09-16T02:26:56.602Z,54.22
2022-09-16T02:32:01.280Z,54.20
2022-09-16T02:37:08.385Z,54.56
2022-09-16T02:42:10.693Z,54.76
2022-09-16T02:47:31.676Z,54.99
2022-09-16T02:53:02.571Z,54.87
2022-09-16T02:58:07.953Z,55.14
2022-09-16T03:03:10.105Z,54.85
2022-09-16T03:08:11.990Z,55.16
2022-09-16T03:13:27.371Z,55.27
2022-09-16T03:18:41.315Z,55.44
2022-09-16T03:23:52.310Z,55.35
2022-09-16T03:29:09.851Z,55.30
2022-09-16T03:34:21.412Z,55.30
2022-09-16T03:39:23.399Z,55.44
2022-09-16T03:44:32.850Z,55.39
2022-09-16T03:49:35.554Z,55.13
2022-09-16T03:54:39.109Z,55.09
2022-09-16T03:59:42.120Z,55.31
2022-09-16T04:04:43.917Z,55.57
2022-09-16T04:09:45.817Z,56.12
2022-09-16T04:14:47.623Z,56.27
2022-09-16T04:19:50.071Z,55.90
2022-09-16T04:24:51.930Z,56.13
2022-09-16T04:29:53.711Z,56.38
2022-09-16T04:34:55.509Z,56.85
2022-09-16T04:40:01.104Z,56.60
2022-09-16T04:45:06.889Z,56.20
2022-09-16T04:50:09.854Z,56.45
2022-09-16T04:55:11.701Z,56.58
2022-09-16T05:00:13.976Z,56.92
2022-09-16T05:05:17.331Z,56.60
2022-09-16T05:10:19.248Z,56.47
2022-09-16T05:15:21.220Z,56.10
2022-09-16T05:20:23.335Z,56.09
2022-09-16T05:25:25.165Z,56.04
2022-09-16T05:30:26.983Z,55.84
2022-09-16T05:35:28.842Z,55.36
2022-09-16T05:40:30.713Z,55.25
2022-09-16T05:45:32.810Z,55.20
2022-09-16T05:50:34.675Z,55.24
2022-09-16T05:55:36.470Z,56.15
2022-09-16T06:00:38.250Z,56.72
2022-09-16T06:05:45.017Z,57.04
2022-09-16T06:10:47.559Z,57.79
2022-09-16T06:15:51.527Z,57.95
2022-09-16T06:20:53.653Z,57.72
2022-09-16T06:26:10.131Z,58.04
2022-09-16T06:31:14.858Z,58.56
2022-09-16T06:36:19.419Z,58.37
2022-09-16T06:41:22.295Z,58.66
2022-09-16T06:46:27.228Z,58.48
2022-09-16T06:51:31.365Z,58.34
2022-09-16T06:56:37.940Z,58.26
2022-09-16T07:01:40.330Z,57.84
2022-09-16T07:07:08.158Z,58.20
2022-09-16T07:12:05.120Z,57.45
2022-09-16T07:17:09.151Z,56.96
2022-09-16T07:22:11.618Z,56.77
2022-09-16T07:27:13.926Z,56.72
2022-09-16T07:32:15.887Z,56.49
2022-09-16T07:37:19.597Z,56.14
2022-09-16T07:42:23.691Z,55.71
2022-09-16T07:47:25.569Z,55.09
2022-09-16T07:52:29.537Z,54.74
2022-09-16T07:57:31.333Z,54.23
2022-09-16T08:02:33.197Z,54.42
2022-09-16T08:07:35.530Z,53.83
2022-09-16T08:12:37.370Z,53.94
2022-09-16T08:17:39.243Z,53.40
2022-09-16T08:22:41.078Z,53.01
2022-09-16T08:27:42.899Z,51.96
2022-09-16T08:32:44.792Z,51.51
2022-09-16T08:37:50.033Z,50.89
2022-09-16T08:43:16.603Z,49.40
2022-09-16T08:48:43.957Z,48.86
2022-09-16T08:53:45.692Z,47.80
2022-09-16T08:58:54.060Z,47.92
2022-09-16T09:03:56.530Z,48.07
2022-09-16T09:09:36.318Z,47.61
2022-09-16T09:15:00.459Z,49.40
2022-09-16T09:20:29.456Z,50.72
2022-09-16T09:25:49.122Z,51.45
2022-09-16T09:31:21.409Z,51.10
2022-09-16T09:36:32.109Z,50.65
2022-09-16T09:41:46.687Z,50.42
2022-09-16T09:46:54.661Z,50.51
2022-09-16T09:52:17.409Z,49.98
2022-09-16T09:57:25.226Z,48.50
2022-09-16T10:02:27.235Z,48.88
2022-09-16T10:07:29.474Z,47.99
2022-09-16T10:12:36.323Z,47.62
2022-09-16T10:17:38.210Z,47.62
2022-09-16T10:22:40.060Z,46.95
2022-09-16T10:27:42.130Z,46.13
2022-09-16T10:33:02.172Z,45.46
2022-09-16T10:38:17.510Z,44.53
2022-09-16T10:43:19.509Z,45.37
2022-09-16T10:48:26.462Z,47.46
2022-09-16T10:53:44.094Z,49.43
2022-09-16T10:58:46.604Z,50.72
2022-09-16T11:03:51.109Z,51.26
2022-09-16T11:09:08.191Z,51.64
2022-09-16T11:14:37.754Z,52.25
2022-09-16T11:20:01.222Z,51.74
2022-09-16T11:25:08.885Z,51.07
2022-09-16T11:30:18.165Z,51.12
2022-09-16T11:35:46.180Z,50.92
2022-09-16T11:41:03.891Z,51.37
2022-09-16T11:46:16.197Z,51.86
2022-09-16T11:51:51.149Z,51.52
2022-09-16T11:57:00.717Z,51.05
2022-09-16T12:02:39.740Z,49.70
2022-09-16T12:07:51.296Z,49.90
2022-09-16T12:12:59.126Z,48.80
2022-09-16T12:18:18.301Z,48.21
2022-09-16T12:23:26.791Z,46.26
2022-09-16T12:28:50.221Z,45.64
2022-09-16T12:34:12.034Z,45.24
2022-09-16T12:39:14.157Z,46.18
2022-09-16T12:44:34.394Z,46.26
2022-09-16T12:50:00.854Z,45.51
2022-09-16T12:55:38.210Z,44.20
2022-09-16T13:00:53.804Z,42.54
2022-09-16T13:05:58.504Z,41.95
2022-09-16T13:11:40.004Z,42.86
2022-09-16T13:16:37.118Z,42.33
2022-09-16T13:21:44.646Z,42.50
2022-09-16T13:26:46.895Z,41.88
2022-09-16T13:31:49.042Z,41.85
2022-09-16T13:36:51.002Z,40.80
2022-09-16T13:41:52.804Z,39.53
2022-09-16T13:46:54.927Z,39.20
2022-09-16T13:51:56.897Z,39.78
2022-09-16T13:57:21.750Z,39.29
2022-09-16T14:02:35.685Z,39.07
2022-09-16T14:07:58.274Z,39.02
2022-09-16T14:13:14.202Z,38.40
2022-09-16T14:18:20.756Z,39.87
2022-09-16T14:23:24.718Z,40.83
2022-09-16T14:28:28.483Z,41.15
2022-09-16T14:33:55.650Z,41.37
2022-09-16T14:39:14.155Z,40.44
2022-09-16T14:44:19.065Z,40.22
2022-09-16T14:49:22.093Z,39.96
2022-09-16T14:54:25.803Z,39.31
2022-09-16T14:59:42.030Z,38.69
2022-09-16T15:04:47.510Z,38.79
2022-09-16T15:10:00.221Z,38.80
2022-09-16T15:15:24.960Z,38.58
2022-09-16T15:20:31.840Z,38.08
2022-09-16T15:25:37.812Z,38.56
2022-09-16T15:30:49.111Z,38.78
2022-09-16T15:35:53.006Z,39.65
2022-09-16T15:41:03.236Z,40.21
2022-09-16T15:46:18.262Z,40.36
2022-09-16T15:51:44.963Z,40.79
2022-09-16T15:57:04.191Z,41.35
2022-09-16T16:02:24.436Z,41.34
2022-09-16T16:07:52.718Z,41.56
2022-09-16T16:12:55.579Z,41.91
2022-09-16T16:18:00.377Z,42.41
2022-09-16T16:23:02.387Z,42.45
2022-09-16T16:28:04.607Z,42.62
2022-09-16T16:33:09.216Z,42.93
2022-09-16T16:38:11.517Z,43.47
2022-09-16T16:43:13.356Z,43.64
2022-09-16T16:48:15.194Z,43.79
2022-09-16T16:53:16.990Z,44.32
2022-09-16T16:58:19.261Z,44.55
2022-09-16T17:03:22.764Z,44.50
2022-09-16T17:08:24.561Z,44.92
2022-09-16T17:13:26.348Z,45.10
2022-09-16T17:18:28.293Z,45.29
2022-09-16T17:23:30.401Z,45.28
2022-09-16T17:28:32.641Z,45.70
2022-09-16T17:33:34.474Z,45.88
2022-09-16T17:38:36.816Z,46.04
2022-09-16T17:43:39.663Z,45.94
2022-09-16T17:48:43.107Z,46.21
2022-09-16T17:53:46.177Z,46.36
2022-09-16T17:58:48.548Z,46.90
2022-09-16T18:03:52.822Z,47.54
2022-09-16T18:08:55.559Z,47.34
2022-09-16T18:14:00.138Z,47.54
2022-09-16T18:19:03.105Z,47.39
2022-09-16T18:24:11.346Z,47.48
2022-09-16T18:29:14.438Z,47.75
2022-09-16T18:34:17.919Z,47.80
2022-09-16T18:39:19.893Z,47.41
2022-09-16T18:44:26.272Z,47.48
2022-09-16T18:49:30.226Z,47.58
2022-09-16T18:54:33.521Z,47.38
2022-09-16T18:59:37.013Z,47.44
2022-09-16T19:04:43.047Z,47.71
2022-09-16T19:09:46.249Z,47.81
2022-09-16T19:14:48.410Z,47.86
2022-09-16T19:19:51.209Z,48.79
2022-09-16T19:24:54.467Z,48.79
2022-09-16T19:29:56.284Z,48.82
2022-09-16T19:34:58.070Z,48.90
2022-09-16T19:39:59.878Z,48.98
2022-09-16T19:45:01.867Z,48.54
2022-09-16T19:50:04.074Z,48.42
2022-09-16T19:55:06.485Z,48.08
2022-09-16T20:00:14.200Z,48.57
2022-09-16T20:05:16.007Z,48.89
2022-09-16T20:10:18.314Z,48.39
2022-09-16T20:15:20.102Z,48.54
2022-09-16T20:20:22.271Z,48.72
2022-09-16T20:25:24.041Z,48.97
2022-09-16T20:30:25.858Z,49.42
2022-09-16T20:35:27.814Z,49.66
2022-09-16T20:40:29.738Z,49.88
2022-09-16T20:45:31.780Z,49.90
2022-09-16T20:50:38.592Z,50.29
2022-09-16T20:55:40.440Z,50.20
2022-09-16T21:00:42.358Z,50.69
2022-09-16T21:05:44.161Z,51.06
2022-09-16T21:10:46.028Z,50.85
2022-09-16T21:15:58.716Z,50.61
2022-09-16T21:21:09.052Z,50.37
2022-09-16T21:26:13.068Z,49.80
2022-09-16T21:31:16.172Z,49.02
2022-09-16T21:36:19.067Z,48.28
2022-09-16T21:41:22.452Z,47.73
2022-09-16T21:46:29.636Z,47.69
2022-09-16T21:51:35.472Z,47.44
2022-09-16T21:56:39.271Z,47.65
2022-09-16T22:01:41.157Z,48.33
2022-09-16T22:06:43.146Z,48.03
2022-09-16T22:11:45.049Z,48.35
2022-09-16T22:16:46.966Z,49.12
2022-09-16T22:21:51.105Z,48.99
2022-09-16T22:26:52.976Z,49.35
2022-09-16T22:31:54.766Z,49.56
2022-09-16T22:36:56.539Z,49.51
2022-09-16T22:41:58.306Z,49.42
2022-09-16T22:47:00.563Z,49.73
2022-09-16T22:52:02.735Z,49.77
2022-09-16T22:57:04.548Z,50.06
2022-09-16T23:02:06.485Z,49.99
2022-09-16T23:07:10.243Z,50.22
2022-09-16T23:12:15.996Z,50.60
2022-09-16T23:17:17.853Z,50.77
2022-09-16T23:22:19.652Z,50.70
2022-09-16T23:27:21.452Z,50.86
2022-09-16T23:32:23.243Z,51.09
2022-09-16T23:37:25.097Z,51.17
2022-09-16T23:42:27.646Z,51.06
2022-09-16T23:47:29.522Z,50.83
2022-09-16T23:52:31.393Z,50.87
2022-09-16T23:57:33.207Z,51.01
